sensor_id;sensor_type;location;lat;lon;timestamp;P1;durP1;ratioP1;P2;durP2;ratioP2
4084;SDS011;2057;50.858;6.572;2023-03-12T00:02:10;10.90;;;6.03;;
4084;SDS011;2057;50.858;6.572;2023-03-12T00:04:35;12.53;;;6.30;;
4084;SDS011;2057;50.858;6.572;2023-03-12T00:07:01;15.60;;;5.67;;
4084;SDS011;2057;50.858;6.572;2023-03-12T00:09:27;15.52;;;5.95;;
4084;SDS011;2057;50.858;6.572;2023-03-12T00:11:53;32.17;;;6.30;;
4084;SDS011;2057;50.858;6.572;2023-03-12T00:14:20;15.43;;;6.93;;
4084;SDS011;2057;50.858;6.572;2023-03-12T00:16:45;12.33;;;5.67;;
4084;SDS011;2057;50.858;6.572;2023-03-12T00:19:11;13.50;;;5.70;;
4084;SDS011;2057;50.858;6.572;2023-03-12T00:21:39;17.20;;;6.15;;
4084;SDS011;2057;50.858;6.572;2023-03-12T00:24:05;21.60;;;7.07;;
4084;SDS011;2057;50.858;6.572;2023-03-12T00:26:33;14.10;;;6.75;;
4084;SDS011;2057;50.858;6.572;2023-03-12T00:28:58;15.03;;;7.30;;
4084;SDS011;2057;50.858;6.572;2023-03-12T00:31:25;19.20;;;7.00;;
4084;SDS011;2057;50.858;6.572;2023-03-12T00:33:53;17.40;;;6.57;;
4084;SDS011;2057;50.858;6.572;2023-03-12T00:36:20;11.35;;;6.75;;
4084;SDS011;2057;50.858;6.572;2023-03-12T00:38:50;12.65;;;6.05;;
4084;SDS011;2057;50.858;6.572;2023-03-12T00:41:19;11.20;;;6.25;;
4084;SDS011;2057;50.858;6.572;2023-03-12T00:43:46;16.67;;;6.65;;
4084;SDS011;2057;50.858;6.572;2023-03-12T00:46:11;16.90;;;6.57;;
4084;SDS011;2057;50.858;6.572;2023-03-12T00:48:37;12.10;;;6.00;;
4084;SDS011;2057;50.858;6.572;2023-03-12T00:51:05;10.52;;;6.50;;
4084;SDS011;2057;50.858;6.572;2023-03-12T00:53:33;11.35;;;6.25;;
4084;SDS011;2057;50.858;6.572;2023-03-12T00:55:59;13.48;;;6.25;;
4084;SDS011;2057;50.858;6.572;2023-03-12T00:58:25;18.70;;;5.40;;
4084;SDS011;2057;50.858;6.572;2023-03-12T01:00:51;22.83;;;6.47;;
4084;SDS011;2057;50.858;6.572;2023-03-12T01:03:16;11.00;;;5.63;;
4084;SDS011;2057;50.858;6.572;2023-03-12T01:05:41;11.43;;;6.00;;
4084;SDS011;2057;50.858;6.572;2023-03-12T01:08:07;14.53;;;6.53;;
4084;SDS011;2057;50.858;6.572;2023-03-12T01:10:33;13.55;;;5.22;;
4084;SDS011;2057;50.858;6.572;2023-03-12T01:12:59;10.43;;;5.85;;
4084;SDS011;2057;50.858;6.572;2023-03-12T01:15:25;17.47;;;5.07;;
4084;SDS011;2057;50.858;6.572;2023-03-12T01:17:51;10.83;;;5.90;;
4084;SDS011;2057;50.858;6.572;2023-03-12T01:20:16;19.77;;;5.80;;
4084;SDS011;2057;50.858;6.572;2023-03-12T01:22:42;9.00;;;5.27;;
4084;SDS011;2057;50.858;6.572;2023-03-12T01:25:08;8.02;;;5.50;;
4084;SDS011;2057;50.858;6.572;2023-03-12T01:27:34;16.13;;;6.57;;
4084;SDS011;2057;50.858;6.572;2023-03-12T01:29:59;8.70;;;5.70;;
4084;SDS011;2057;50.858;6.572;2023-03-12T01:32:25;13.73;;;5.63;;
4084;SDS011;2057;50.858;6.572;2023-03-12T01:34:50;15.93;;;5.87;;
4084;SDS011;2057;50.858;6.572;2023-03-12T01:37:15;15.40;;;5.03;;
4084;SDS011;2057;50.858;6.572;2023-03-12T01:39:43;12.10;;;5.20;;
4084;SDS011;2057;50.858;6.572;2023-03-12T01:42:11;15.27;;;4.57;;
4084;SDS011;2057;50.858;6.572;2023-03-12T01:47:21;8.90;;;4.53;;
4084;SDS011;2057;50.858;6.572;2023-03-12T01:49:48;8.40;;;4.47;;
4084;SDS011;2057;50.858;6.572;2023-03-12T01:57:42;12.68;;;4.70;;
4084;SDS011;2057;50.858;6.572;2023-03-12T02:00:17;7.32;;;4.63;;
4084;SDS011;2057;50.858;6.572;2023-03-12T02:02:44;11.13;;;5.18;;
4084;SDS011;2057;50.858;6.572;2023-03-12T02:05:33;6.35;;;4.07;;
4084;SDS011;2057;50.858;6.572;2023-03-12T02:08:07;16.83;;;4.72;;
4084;SDS011;2057;50.858;6.572;2023-03-12T02:10:36;8.93;;;4.15;;
4084;SDS011;2057;50.858;6.572;2023-03-12T02:13:04;8.80;;;4.65;;
4084;SDS011;2057;50.858;6.572;2023-03-12T02:15:34;12.52;;;5.80;;
4084;SDS011;2057;50.858;6.572;2023-03-12T02:18:04;11.90;;;5.05;;
4084;SDS011;2057;50.858;6.572;2023-03-12T02:20:55;16.00;;;4.30;;
4084;SDS011;2057;50.858;6.572;2023-03-12T02:23:44;10.00;;;5.78;;
4084;SDS011;2057;50.858;6.572;2023-03-12T02:26:16;16.15;;;4.50;;
4084;SDS011;2057;50.858;6.572;2023-03-12T02:28:46;12.02;;;4.78;;
4084;SDS011;2057;50.858;6.572;2023-03-12T02:31:14;8.18;;;4.18;;
4084;SDS011;2057;50.858;6.572;2023-03-12T02:33:43;7.63;;;4.50;;
4084;SDS011;2057;50.858;6.572;2023-03-12T02:36:09;7.17;;;4.00;;
4084;SDS011;2057;50.858;6.572;2023-03-12T02:38:41;6.80;;;3.78;;
4084;SDS011;2057;50.858;6.572;2023-03-12T02:43:50;9.40;;;5.18;;
4084;SDS011;2057;50.858;6.572;2023-03-12T02:46:24;6.70;;;3.35;;
4084;SDS011;2057;50.858;6.572;2023-03-12T02:48:52;4.75;;;3.35;;
4084;SDS011;2057;50.858;6.572;2023-03-12T02:51:20;7.80;;;4.00;;
4084;SDS011;2057;50.858;6.572;2023-03-12T02:53:45;10.83;;;3.67;;
4084;SDS011;2057;50.858;6.572;2023-03-12T02:56:10;6.70;;;3.60;;
4084;SDS011;2057;50.858;6.572;2023-03-12T02:58:36;8.47;;;4.13;;
4084;SDS011;2057;50.858;6.572;2023-03-12T03:01:01;5.40;;;2.80;;
4084;SDS011;2057;50.858;6.572;2023-03-12T03:03:27;5.97;;;3.10;;
4084;SDS011;2057;50.858;6.572;2023-03-12T03:05:57;7.93;;;3.05;;
4084;SDS011;2057;50.858;6.572;2023-03-12T03:08:23;7.15;;;3.03;;
4084;SDS011;2057;50.858;6.572;2023-03-12T03:10:49;10.60;;;3.90;;
4084;SDS011;2057;50.858;6.572;2023-03-12T03:13:16;4.10;;;2.70;;
4084;SDS011;2057;50.858;6.572;2023-03-12T03:15:42;3.70;;;2.67;;
4084;SDS011;2057;50.858;6.572;2023-03-12T03:18:07;6.50;;;3.17;;
4084;SDS011;2057;50.858;6.572;2023-03-12T03:20:32;9.87;;;2.83;;
4084;SDS011;2057;50.858;6.572;2023-03-12T03:22:58;8.70;;;2.70;;
4084;SDS011;2057;50.858;6.572;2023-03-12T03:25:23;6.30;;;3.20;;
4084;SDS011;2057;50.858;6.572;2023-03-12T03:27:51;10.95;;;3.53;;
4084;SDS011;2057;50.858;6.572;2023-03-12T03:30:16;5.63;;;2.70;;
4084;SDS011;2057;50.858;6.572;2023-03-12T03:32:42;11.57;;;3.40;;
4084;SDS011;2057;50.858;6.572;2023-03-12T03:35:07;14.90;;;3.77;;
4084;SDS011;2057;50.858;6.572;2023-03-12T03:37:33;3.10;;;2.53;;
4084;SDS011;2057;50.858;6.572;2023-03-12T03:39:59;12.33;;;2.73;;
4084;SDS011;2057;50.858;6.572;2023-03-12T03:42:24;3.60;;;2.87;;
4084;SDS011;2057;50.858;6.572;2023-03-12T03:44:49;8.90;;;3.37;;
4084;SDS011;2057;50.858;6.572;2023-03-12T03:47:15;6.63;;;2.70;;
4084;SDS011;2057;50.858;6.572;2023-03-12T03:49:40;4.97;;;2.20;;
4084;SDS011;2057;50.858;6.572;2023-03-12T03:52:05;8.47;;;2.97;;
4084;SDS011;2057;50.858;6.572;2023-03-12T03:54:33;6.95;;;3.00;;
4084;SDS011;2057;50.858;6.572;2023-03-12T03:56:58;10.53;;;2.97;;
4084;SDS011;2057;50.858;6.572;2023-03-12T03:59:24;9.60;;;2.97;;
4084;SDS011;2057;50.858;6.572;2023-03-12T04:01:50;11.37;;;3.00;;
4084;SDS011;2057;50.858;6.572;2023-03-12T04:04:16;8.00;;;3.47;;
4084;SDS011;2057;50.858;6.572;2023-03-12T04:06:41;8.60;;;2.43;;
4084;SDS011;2057;50.858;6.572;2023-03-12T04:09:07;4.80;;;2.20;;
4084;SDS011;2057;50.858;6.572;2023-03-12T04:11:32;14.03;;;2.77;;
4084;SDS011;2057;50.858;6.572;2023-03-12T04:13:57;8.63;;;2.67;;
4084;SDS011;2057;50.858;6.572;2023-03-12T04:16:23;10.53;;;2.70;;
4084;SDS011;2057;50.858;6.572;2023-03-12T04:18:48;11.13;;;3.30;;
4084;SDS011;2057;50.858;6.572;2023-03-12T04:21:14;7.17;;;2.20;;
4084;SDS011;2057;50.858;6.572;2023-03-12T04:23:40;27.63;;;4.53;;
4084;SDS011;2057;50.858;6.572;2023-03-12T04:26:05;11.00;;;2.80;;
4084;SDS011;2057;50.858;6.572;2023-03-12T04:28:31;5.40;;;2.90;;
4084;SDS011;2057;50.858;6.572;2023-03-12T04:31:03;10.25;;;2.58;;
4084;SDS011;2057;50.858;6.572;2023-03-12T04:33:31;5.85;;;3.13;;
4084;SDS011;2057;50.858;6.572;2023-03-12T04:36:03;7.00;;;3.35;;
4084;SDS011;2057;50.858;6.572;2023-03-12T04:38:29;4.10;;;2.65;;
4084;SDS011;2057;50.858;6.572;2023-03-12T04:41:09;13.10;;;3.43;;
4084;SDS011;2057;50.858;6.572;2023-03-12T04:43:40;9.20;;;2.88;;
4084;SDS011;2057;50.858;6.572;2023-03-12T04:46:06;11.60;;;3.10;;
4084;SDS011;2057;50.858;6.572;2023-03-12T04:48:36;10.75;;;3.55;;
4084;SDS011;2057;50.858;6.572;2023-03-12T04:51:02;9.75;;;3.88;;
4084;SDS011;2057;50.858;6.572;2023-03-12T04:53:28;8.43;;;3.88;;
4084;SDS011;2057;50.858;6.572;2023-03-12T04:55:57;10.13;;;2.97;;
4084;SDS011;2057;50.858;6.572;2023-03-12T04:58:23;9.32;;;3.08;;
4084;SDS011;2057;50.858;6.572;2023-03-12T05:00:49;10.20;;;3.23;;
4084;SDS011;2057;50.858;6.572;2023-03-12T05:03:15;7.23;;;3.70;;
4084;SDS011;2057;50.858;6.572;2023-03-12T05:05:41;10.68;;;3.38;;
4084;SDS011;2057;50.858;6.572;2023-03-12T05:08:06;12.03;;;3.57;;
4084;SDS011;2057;50.858;6.572;2023-03-12T05:10:33;14.95;;;3.90;;
4084;SDS011;2057;50.858;6.572;2023-03-12T05:12:59;17.93;;;4.00;;
4084;SDS011;2057;50.858;6.572;2023-03-12T05:15:24;7.40;;;3.70;;
4084;SDS011;2057;50.858;6.572;2023-03-12T05:17:50;9.03;;;4.10;;
4084;SDS011;2057;50.858;6.572;2023-03-12T05:20:15;12.97;;;4.20;;
4084;SDS011;2057;50.858;6.572;2023-03-12T05:22:49;15.45;;;3.60;;
4084;SDS011;2057;50.858;6.572;2023-03-12T05:25:14;15.27;;;5.28;;
4084;SDS011;2057;50.858;6.572;2023-03-12T05:27:42;11.27;;;5.03;;
4084;SDS011;2057;50.858;6.572;2023-03-12T05:30:10;14.52;;;3.88;;
4084;SDS011;2057;50.858;6.572;2023-03-12T05:32:35;12.73;;;3.93;;
4084;SDS011;2057;50.858;6.572;2023-03-12T05:35:01;14.70;;;4.97;;
4084;SDS011;2057;50.858;6.572;2023-03-12T05:37:28;17.90;;;3.67;;
4084;SDS011;2057;50.858;6.572;2023-03-12T05:39:54;13.40;;;3.60;;
4084;SDS011;2057;50.858;6.572;2023-03-12T05:42:19;10.00;;;3.60;;
4084;SDS011;2057;50.858;6.572;2023-03-12T05:44:44;9.23;;;3.90;;
4084;SDS011;2057;50.858;6.572;2023-03-12T05:47:09;6.10;;;3.30;;
4084;SDS011;2057;50.858;6.572;2023-03-12T05:49:35;18.47;;;4.43;;
4084;SDS011;2057;50.858;6.572;2023-03-12T05:52:00;10.93;;;4.30;;
4084;SDS011;2057;50.858;6.572;2023-03-12T05:54:26;7.13;;;3.57;;
4084;SDS011;2057;50.858;6.572;2023-03-12T05:56:54;20.13;;;4.20;;
4084;SDS011;2057;50.858;6.572;2023-03-12T05:59:22;6.55;;;3.45;;
4084;SDS011;2057;50.858;6.572;2023-03-12T06:01:47;10.23;;;3.47;;
4084;SDS011;2057;50.858;6.572;2023-03-12T06:04:15;13.90;;;3.57;;
4084;SDS011;2057;50.858;6.572;2023-03-12T06:06:40;18.25;;;3.63;;
4084;SDS011;2057;50.858;6.572;2023-03-12T06:09:05;6.17;;;3.20;;
4084;SDS011;2057;50.858;6.572;2023-03-12T06:11:32;6.77;;;2.80;;
4084;SDS011;2057;50.858;6.572;2023-03-12T06:13:59;12.63;;;3.50;;
4084;SDS011;2057;50.858;6.572;2023-03-12T06:16:24;8.93;;;3.27;;
4084;SDS011;2057;50.858;6.572;2023-03-12T06:18:52;15.30;;;3.88;;
4084;SDS011;2057;50.858;6.572;2023-03-12T06:21:20;6.88;;;3.05;;
4084;SDS011;2057;50.858;6.572;2023-03-12T06:23:47;18.13;;;3.95;;
4084;SDS011;2057;50.858;6.572;2023-03-12T06:26:15;10.35;;;2.90;;
4084;SDS011;2057;50.858;6.572;2023-03-12T06:28:41;11.10;;;3.13;;
4084;SDS011;2057;50.858;6.572;2023-03-12T06:31:07;8.73;;;4.07;;
4084;SDS011;2057;50.858;6.572;2023-03-12T06:33:34;7.85;;;3.42;;
4084;SDS011;2057;50.858;6.572;2023-03-12T06:36:03;6.10;;;3.30;;
4084;SDS011;2057;50.858;6.572;2023-03-12T06:38:30;15.65;;;3.20;;
4084;SDS011;2057;50.858;6.572;2023-03-12T06:40:59;9.00;;;3.22;;
4084;SDS011;2057;50.858;6.572;2023-03-12T06:43:27;16.70;;;3.75;;
4084;SDS011;2057;50.858;6.572;2023-03-12T06:45:56;9.88;;;3.92;;
4084;SDS011;2057;50.858;6.572;2023-03-12T06:48:23;16.55;;;4.00;;
4084;SDS011;2057;50.858;6.572;2023-03-12T06:50:51;10.20;;;4.25;;
4084;SDS011;2057;50.858;6.572;2023-03-12T06:53:17;7.80;;;2.75;;
4084;SDS011;2057;50.858;6.572;2023-03-12T06:55:43;13.38;;;3.88;;
4084;SDS011;2057;50.858;6.572;2023-03-12T06:58:10;7.07;;;3.05;;
4084;SDS011;2057;50.858;6.572;2023-03-12T07:00:38;25.65;;;4.18;;
4084;SDS011;2057;50.858;6.572;2023-03-12T07:03:04;12.00;;;4.10;;
4084;SDS011;2057;50.858;6.572;2023-03-12T07:05:29;6.90;;;3.67;;
4084;SDS011;2057;50.858;6.572;2023-03-12T07:07:54;6.73;;;3.60;;
4084;SDS011;2057;50.858;6.572;2023-03-12T07:10:20;11.07;;;3.67;;
4084;SDS011;2057;50.858;6.572;2023-03-12T07:12:45;7.80;;;3.30;;
4084;SDS011;2057;50.858;6.572;2023-03-12T07:15:14;6.70;;;3.72;;
4084;SDS011;2057;50.858;6.572;2023-03-12T07:17:40;20.93;;;3.33;;
4084;SDS011;2057;50.858;6.572;2023-03-12T07:20:05;14.80;;;3.73;;
4084;SDS011;2057;50.858;6.572;2023-03-12T07:22:31;9.27;;;4.50;;
4084;SDS011;2057;50.858;6.572;2023-03-12T07:24:56;6.40;;;3.23;;
4084;SDS011;2057;50.858;6.572;2023-03-12T07:27:22;9.87;;;4.33;;
4084;SDS011;2057;50.858;6.572;2023-03-12T07:29:50;4.70;;;3.70;;
4084;SDS011;2057;50.858;6.572;2023-03-12T07:32:20;13.88;;;4.07;;
4084;SDS011;2057;50.858;6.572;2023-03-12T07:34:45;6.65;;;4.00;;
4084;SDS011;2057;50.858;6.572;2023-03-12T07:37:13;7.35;;;4.40;;
4084;SDS011;2057;50.858;6.572;2023-03-12T07:39:39;5.50;;;4.00;;
4084;SDS011;2057;50.858;6.572;2023-03-12T07:42:04;5.80;;;4.33;;
4084;SDS011;2057;50.858;6.572;2023-03-12T07:44:29;8.20;;;4.00;;
4084;SDS011;2057;50.858;6.572;2023-03-12T07:46:57;5.95;;;4.93;;
4084;SDS011;2057;50.858;6.572;2023-03-12T07:49:23;6.50;;;4.33;;
4084;SDS011;2057;50.858;6.572;2023-03-12T07:51:48;3.93;;;3.53;;
4084;SDS011;2057;50.858;6.572;2023-03-12T07:54:13;5.67;;;5.07;;
4084;SDS011;2057;50.858;6.572;2023-03-12T07:56:41;5.18;;;4.05;;
4084;SDS011;2057;50.858;6.572;2023-03-12T07:59:06;6.53;;;4.73;;
4084;SDS011;2057;50.858;6.572;2023-03-12T08:01:31;6.90;;;4.47;;
4084;SDS011;2057;50.858;6.572;2023-03-12T08:04:01;4.57;;;4.18;;
4084;SDS011;2057;50.858;6.572;2023-03-12T08:06:27;6.80;;;4.93;;
4084;SDS011;2057;50.858;6.572;2023-03-12T08:08:54;5.75;;;4.65;;
4084;SDS011;2057;50.858;6.572;2023-03-12T08:11:20;6.93;;;6.00;;
4084;SDS011;2057;50.858;6.572;2023-03-12T08:13:47;5.15;;;4.63;;
4084;SDS011;2057;50.858;6.572;2023-03-12T08:16:15;7.67;;;4.80;;
4084;SDS011;2057;50.858;6.572;2023-03-12T08:18:43;7.60;;;5.07;;
4084;SDS011;2057;50.858;6.572;2023-03-12T08:21:08;6.53;;;5.43;;
4084;SDS011;2057;50.858;6.572;2023-03-12T08:23:38;8.55;;;5.35;;
4084;SDS011;2057;50.858;6.572;2023-03-12T08:26:04;6.00;;;5.10;;
4084;SDS011;2057;50.858;6.572;2023-03-12T08:28:31;10.90;;;4.82;;
4084;SDS011;2057;50.858;6.572;2023-03-12T08:30:59;8.48;;;4.85;;
4084;SDS011;2057;50.858;6.572;2023-03-12T08:33:25;8.00;;;4.80;;
4084;SDS011;2057;50.858;6.572;2023-03-12T08:35:53;10.77;;;6.20;;
4084;SDS011;2057;50.858;6.572;2023-03-12T08:38:21;12.02;;;5.90;;
4084;SDS011;2057;50.858;6.572;2023-03-12T08:40:53;5.50;;;4.90;;
4084;SDS011;2057;50.858;6.572;2023-03-12T08:43:20;9.07;;;5.80;;
4084;SDS011;2057;50.858;6.572;2023-03-12T08:45:52;6.90;;;5.40;;
4084;SDS011;2057;50.858;6.572;2023-03-12T08:48:24;4.90;;;4.40;;
4084;SDS011;2057;50.858;6.572;2023-03-12T08:50:50;7.20;;;6.07;;
4084;SDS011;2057;50.858;6.572;2023-03-12T08:53:15;8.13;;;5.00;;
4084;SDS011;2057;50.858;6.572;2023-03-12T08:55:41;11.10;;;5.88;;
4084;SDS011;2057;50.858;6.572;2023-03-12T08:58:07;8.03;;;5.13;;
4084;SDS011;2057;50.858;6.572;2023-03-12T09:00:35;10.05;;;4.38;;
4084;SDS011;2057;50.858;6.572;2023-03-12T09:03:01;6.40;;;5.27;;
4084;SDS011;2057;50.858;6.572;2023-03-12T09:05:26;10.33;;;7.00;;
4084;SDS011;2057;50.858;6.572;2023-03-12T09:07:57;7.78;;;6.03;;
4084;SDS011;2057;50.858;6.572;2023-03-12T09:10:23;20.60;;;12.63;;
4084;SDS011;2057;50.858;6.572;2023-03-12T09:12:51;14.93;;;8.52;;
4084;SDS011;2057;50.858;6.572;2023-03-12T09:15:18;9.90;;;8.00;;
4084;SDS011;2057;50.858;6.572;2023-03-12T09:17:44;12.13;;;6.63;;
4084;SDS011;2057;50.858;6.572;2023-03-12T09:20:09;14.10;;;8.07;;
4084;SDS011;2057;50.858;6.572;2023-03-12T09:22:39;5.72;;;4.00;;
4084;SDS011;2057;50.858;6.572;2023-03-12T09:25:06;9.52;;;4.43;;
4084;SDS011;2057;50.858;6.572;2023-03-12T09:27:40;27.15;;;4.68;;
4084;SDS011;2057;50.858;6.572;2023-03-12T09:30:09;4.57;;;3.53;;
4084;SDS011;2057;50.858;6.572;2023-03-12T09:32:45;6.53;;;2.97;;
4084;SDS011;2057;50.858;6.572;2023-03-12T09:35:12;6.13;;;3.00;;
4084;SDS011;2057;50.858;6.572;2023-03-12T09:37:39;10.98;;;3.10;;
4084;SDS011;2057;50.858;6.572;2023-03-12T09:40:05;10.67;;;3.40;;
4084;SDS011;2057;50.858;6.572;2023-03-12T09:42:39;10.52;;;3.85;;
4084;SDS011;2057;50.858;6.572;2023-03-12T09:45:10;9.70;;;5.47;;
4084;SDS011;2057;50.858;6.572;2023-03-12T09:47:48;8.32;;;3.80;;
4084;SDS011;2057;50.858;6.572;2023-03-12T09:50:29;11.65;;;4.25;;
4084;SDS011;2057;50.858;6.572;2023-03-12T09:55:48;11.27;;;4.88;;
4084;SDS011;2057;50.858;6.572;2023-03-12T09:58:21;19.13;;;4.80;;
4084;SDS011;2057;50.858;6.572;2023-03-12T10:01:05;8.00;;;4.13;;
4084;SDS011;2057;50.858;6.572;2023-03-12T10:04:02;12.27;;;3.70;;
4084;SDS011;2057;50.858;6.572;2023-03-12T10:11:45;9.27;;;4.03;;
4084;SDS011;2057;50.858;6.572;2023-03-12T10:17:12;11.43;;;4.20;;
4084;SDS011;2057;50.858;6.572;2023-03-12T10:28:26;7.63;;;3.88;;
4084;SDS011;2057;50.858;6.572;2023-03-12T10:30:58;13.27;;;4.35;;
4084;SDS011;2057;50.858;6.572;2023-03-12T10:33:42;17.42;;;6.80;;
4084;SDS011;2057;50.858;6.572;2023-03-12T10:36:14;9.98;;;6.70;;
4084;SDS011;2057;50.858;6.572;2023-03-12T10:38:45;23.95;;;6.40;;
4084;SDS011;2057;50.858;6.572;2023-03-12T10:41:14;10.45;;;5.18;;
4084;SDS011;2057;50.858;6.572;2023-03-12T10:43:42;22.10;;;8.30;;
4084;SDS011;2057;50.858;6.572;2023-03-12T10:48:42;14.40;;;7.93;;
4084;SDS011;2057;50.858;6.572;2023-03-12T10:51:11;19.65;;;8.00;;
4084;SDS011;2057;50.858;6.572;2023-03-12T10:53:40;16.83;;;8.43;;
4084;SDS011;2057;50.858;6.572;2023-03-12T10:56:18;29.07;;;8.53;;
4084;SDS011;2057;50.858;6.572;2023-03-12T10:58:45;31.50;;;10.07;;
4084;SDS011;2057;50.858;6.572;2023-03-12T11:03:41;21.27;;;9.60;;
4084;SDS011;2057;50.858;6.572;2023-03-12T11:06:09;29.53;;;9.40;;
4084;SDS011;2057;50.858;6.572;2023-03-12T11:11:47;20.50;;;9.77;;
4084;SDS011;2057;50.858;6.572;2023-03-12T11:14:22;20.60;;;9.57;;
4084;SDS011;2057;50.858;6.572;2023-03-12T11:16:53;24.67;;;9.10;;
4084;SDS011;2057;50.858;6.572;2023-03-12T11:19:30;24.53;;;9.37;;
4084;SDS011;2057;50.858;6.572;2023-03-12T11:22:01;23.67;;;8.73;;
4084;SDS011;2057;50.858;6.572;2023-03-12T11:24:28;20.23;;;9.57;;
4084;SDS011;2057;50.858;6.572;2023-03-12T11:29:48;20.77;;;10.27;;
4084;SDS011;2057;50.858;6.572;2023-03-12T11:32:25;15.63;;;8.37;;
4084;SDS011;2057;50.858;6.572;2023-03-12T11:34:58;21.83;;;9.03;;
4084;SDS011;2057;50.858;6.572;2023-03-12T11:37:43;23.87;;;10.27;;
4084;SDS011;2057;50.858;6.572;2023-03-12T11:46:11;29.60;;;12.37;;
4084;SDS011;2057;50.858;6.572;2023-03-12T11:53:55;33.00;;;8.30;;
4084;SDS011;2057;50.858;6.572;2023-03-12T11:56:39;26.07;;;9.43;;
4084;SDS011;2057;50.858;6.572;2023-03-12T11:59:30;27.13;;;9.93;;
4084;SDS011;2057;50.858;6.572;2023-03-12T12:05:15;22.17;;;6.33;;
4084;SDS011;2057;50.858;6.572;2023-03-12T12:13:30;19.63;;;7.60;;
4084;SDS011;2057;50.858;6.572;2023-03-12T12:21:58;28.83;;;6.20;;
4084;SDS011;2057;50.858;6.572;2023-03-12T12:26:47;22.90;;;5.97;;
4084;SDS011;2057;50.858;6.572;2023-03-12T12:34:25;22.03;;;5.00;;
4084;SDS011;2057;50.858;6.572;2023-03-12T12:37:22;19.50;;;5.20;;
4084;SDS011;2057;50.858;6.572;2023-03-12T12:39:53;25.60;;;5.40;;
4084;SDS011;2057;50.858;6.572;2023-03-12T12:42:29;19.97;;;4.53;;
4084;SDS011;2057;50.858;6.572;2023-03-12T12:44:58;32.50;;;5.80;;
4084;SDS011;2057;50.858;6.572;2023-03-12T12:47:52;28.07;;;5.17;;
4084;SDS011;2057;50.858;6.572;2023-03-12T12:50:26;27.57;;;5.50;;
4084;SDS011;2057;50.858;6.572;2023-03-12T12:53:31;23.27;;;5.80;;
4084;SDS011;2057;50.858;6.572;2023-03-12T13:01:16;30.97;;;5.10;;
4084;SDS011;2057;50.858;6.572;2023-03-12T13:03:42;39.43;;;5.73;;
4084;SDS011;2057;50.858;6.572;2023-03-12T13:06:12;31.77;;;7.17;;
4084;SDS011;2057;50.858;6.572;2023-03-12T13:13:44;30.93;;;6.63;;
4084;SDS011;2057;50.858;6.572;2023-03-12T13:16:16;28.10;;;6.20;;
4084;SDS011;2057;50.858;6.572;2023-03-12T13:19:02;26.33;;;5.30;;
4084;SDS011;2057;50.858;6.572;2023-03-12T13:29:46;29.27;;;6.07;;
4084;SDS011;2057;50.858;6.572;2023-03-12T13:43:04;29.80;;;8.77;;
4084;SDS011;2057;50.858;6.572;2023-03-12T13:45:55;33.47;;;7.47;;
4084;SDS011;2057;50.858;6.572;2023-03-12T13:48:22;40.60;;;7.10;;
4084;SDS011;2057;50.858;6.572;2023-03-12T13:50:58;37.63;;;7.03;;
4084;SDS011;2057;50.858;6.572;2023-03-12T13:53:34;18.53;;;5.23;;
4084;SDS011;2057;50.858;6.572;2023-03-12T13:56:03;28.00;;;6.13;;
4084;SDS011;2057;50.858;6.572;2023-03-12T13:58:45;22.27;;;6.20;;
4084;SDS011;2057;50.858;6.572;2023-03-12T14:01:18;29.63;;;6.83;;
4084;SDS011;2057;50.858;6.572;2023-03-12T14:03:48;24.80;;;6.53;;
4084;SDS011;2057;50.858;6.572;2023-03-12T14:06:18;35.20;;;7.70;;
4084;SDS011;2057;50.858;6.572;2023-03-12T14:17:15;41.23;;;7.07;;
4084;SDS011;2057;50.858;6.572;2023-03-12T14:20:17;32.30;;;6.77;;
4084;SDS011;2057;50.858;6.572;2023-03-12T14:22:44;32.27;;;6.30;;
4084;SDS011;2057;50.858;6.572;2023-03-12T14:28:18;33.80;;;5.97;;
4084;SDS011;2057;50.858;6.572;2023-03-12T14:30:58;27.90;;;5.73;;
4084;SDS011;2057;50.858;6.572;2023-03-12T14:33:26;25.17;;;6.50;;
4084;SDS011;2057;50.858;6.572;2023-03-12T14:36:03;26.10;;;7.00;;
4084;SDS011;2057;50.858;6.572;2023-03-12T14:38:36;31.40;;;6.20;;
4084;SDS011;2057;50.858;6.572;2023-03-12T14:41:06;28.67;;;5.50;;
4084;SDS011;2057;50.858;6.572;2023-03-12T14:43:42;35.27;;;6.90;;
4084;SDS011;2057;50.858;6.572;2023-03-12T14:46:15;21.50;;;5.43;;
4084;SDS011;2057;50.858;6.572;2023-03-12T14:48:52;21.03;;;7.07;;
4084;SDS011;2057;50.858;6.572;2023-03-12T14:51:27;24.97;;;7.47;;
4084;SDS011;2057;50.858;6.572;2023-03-12T14:53:54;29.07;;;6.43;;
4084;SDS011;2057;50.858;6.572;2023-03-12T14:56:23;30.43;;;5.77;;
4084;SDS011;2057;50.858;6.572;2023-03-12T14:58:58;38.60;;;6.83;;
4084;SDS011;2057;50.858;6.572;2023-03-12T15:01:32;26.60;;;5.43;;
4084;SDS011;2057;50.858;6.572;2023-03-12T15:04:05;25.17;;;5.13;;
4084;SDS011;2057;50.858;6.572;2023-03-12T15:06:42;19.70;;;6.97;;
4084;SDS011;2057;50.858;6.572;2023-03-12T15:12:50;32.33;;;7.87;;
4084;SDS011;2057;50.858;6.572;2023-03-12T15:15:03;24.50;;;7.20;;
4084;SDS011;2057;50.858;6.572;2023-03-12T15:17:34;37.60;;;7.00;;
4084;SDS011;2057;50.858;6.572;2023-03-12T15:20:04;28.03;;;5.40;;
4084;SDS011;2057;50.858;6.572;2023-03-12T15:22:38;42.37;;;8.00;;
4084;SDS011;2057;50.858;6.572;2023-03-12T15:30:27;39.90;;;8.50;;
4084;SDS011;2057;50.858;6.572;2023-03-12T15:36:13;37.73;;;8.60;;
4084;SDS011;2057;50.858;6.572;2023-03-12T15:38:46;36.57;;;9.57;;
4084;SDS011;2057;50.858;6.572;2023-03-12T15:41:42;45.43;;;7.23;;
4084;SDS011;2057;50.858;6.572;2023-03-12T15:44:15;28.30;;;7.30;;
4084;SDS011;2057;50.858;6.572;2023-03-12T15:46:53;26.00;;;5.67;;
4084;SDS011;2057;50.858;6.572;2023-03-12T15:49:27;29.27;;;5.93;;
4084;SDS011;2057;50.858;6.572;2023-03-12T15:52:02;28.23;;;7.10;;
4084;SDS011;2057;50.858;6.572;2023-03-12T15:54:30;44.07;;;8.17;;
4084;SDS011;2057;50.858;6.572;2023-03-12T16:02:38;45.07;;;6.43;;
4084;SDS011;2057;50.858;6.572;2023-03-12T16:05:12;50.33;;;8.83;;
4084;SDS011;2057;50.858;6.572;2023-03-12T16:07:39;42.43;;;8.10;;
4084;SDS011;2057;50.858;6.572;2023-03-12T16:10:05;32.90;;;6.60;;
4084;SDS011;2057;50.858;6.572;2023-03-12T16:12:38;41.43;;;7.03;;
4084;SDS011;2057;50.858;6.572;2023-03-12T16:15:11;39.67;;;7.03;;
4084;SDS011;2057;50.858;6.572;2023-03-12T16:17:38;36.47;;;6.70;;
4084;SDS011;2057;50.858;6.572;2023-03-12T16:20:04;31.87;;;6.50;;
4084;SDS011;2057;50.858;6.572;2023-03-12T16:22:30;33.73;;;6.23;;
4084;SDS011;2057;50.858;6.572;2023-03-12T16:24:55;22.73;;;5.77;;
4084;SDS011;2057;50.858;6.572;2023-03-12T16:27:22;35.37;;;7.37;;
4084;SDS011;2057;50.858;6.572;2023-03-12T16:29:48;44.27;;;7.70;;
4084;SDS011;2057;50.858;6.572;2023-03-12T16:32:14;50.60;;;9.50;;
4084;SDS011;2057;50.858;6.572;2023-03-12T16:34:41;45.47;;;8.20;;
4084;SDS011;2057;50.858;6.572;2023-03-12T16:37:10;41.87;;;8.93;;
4084;SDS011;2057;50.858;6.572;2023-03-12T16:39:41;26.63;;;6.80;;
4084;SDS011;2057;50.858;6.572;2023-03-12T16:42:16;33.73;;;5.90;;
4084;SDS011;2057;50.858;6.572;2023-03-12T16:44:43;47.03;;;8.77;;
4084;SDS011;2057;50.858;6.572;2023-03-12T16:47:10;53.33;;;7.70;;
4084;SDS011;2057;50.858;6.572;2023-03-12T16:49:36;34.73;;;7.03;;
4084;SDS011;2057;50.858;6.572;2023-03-12T16:52:11;33.23;;;6.43;;
4084;SDS011;2057;50.858;6.572;2023-03-12T16:54:40;34.40;;;6.40;;
4084;SDS011;2057;50.858;6.572;2023-03-12T16:57:09;52.97;;;9.30;;
4084;SDS011;2057;50.858;6.572;2023-03-12T16:59:43;48.53;;;8.50;;
4084;SDS011;2057;50.858;6.572;2023-03-12T17:02:15;48.60;;;6.00;;
4084;SDS011;2057;50.858;6.572;2023-03-12T17:04:42;31.10;;;7.13;;
4084;SDS011;2057;50.858;6.572;2023-03-12T17:07:08;34.00;;;6.20;;
4084;SDS011;2057;50.858;6.572;2023-03-12T17:12:16;36.13;;;6.27;;
4084;SDS011;2057;50.858;6.572;2023-03-12T17:20:15;38.33;;;8.30;;
4084;SDS011;2057;50.858;6.572;2023-03-12T17:22:42;48.63;;;7.50;;
4084;SDS011;2057;50.858;6.572;2023-03-12T17:35:44;39.27;;;6.40;;
4084;SDS011;2057;50.858;6.572;2023-03-12T17:38:17;31.23;;;6.37;;
4084;SDS011;2057;50.858;6.572;2023-03-12T17:40:42;40.67;;;6.60;;
4084;SDS011;2057;50.858;6.572;2023-03-12T17:43:08;45.33;;;7.80;;
4084;SDS011;2057;50.858;6.572;2023-03-12T17:45:33;31.97;;;7.17;;
4084;SDS011;2057;50.858;6.572;2023-03-12T17:48:03;32.10;;;7.70;;
4084;SDS011;2057;50.858;6.572;2023-03-12T17:50:33;24.83;;;5.93;;